CA1121 ZSPD-ZPPP
Flight info
| Callsign | CA1121 |
|---|---|
| Flight time | 2h 45m |
| Altitude | 40100 |
| Route | NXD W131 AKDIM A470 SAGNU W132 OREXA P395 AVDIP W226 IPMUG W611 BIVAV W138 DYG W140 HUY A581 QNX W136 XISLI |
| Aircraft | A339/H-VGDW/C |
Departure
| Time | 2026-05-06 05:22 |
|---|---|
| Airport | Shanghai Pudong International Airport (ZSPD) |
Arrival
| Time | 2026-05-06 08:07 |
|---|---|
| Airport | Kunming Changshui International Airport (ZPPP) |
| Time | Latitude | Longitude | Altitude | Speed | Heading |
|---|---|---|---|---|---|
| 2026-05-06 05:07 | 31.14676 | 121.79828 | 29 ft | 0 kts | 73° |
| 2026-05-06 05:10 | 31.14675 | 121.79823 | 29 ft | 2 kts | 73° |
| 2026-05-06 05:10 | 31.14671 | 121.79806 | 29 ft | 2 kts | 73° |
| 2026-05-06 05:11 | 31.14667 | 121.79790 | 29 ft | 2 kts | 73° |
| 2026-05-06 05:11 | 31.14662 | 121.79773 | 29 ft | 2 kts | 73° |
| 2026-05-06 05:11 | 31.14658 | 121.79756 | 30 ft | 2 kts | 81° |
| 2026-05-06 05:11 | 31.14659 | 121.79739 | 29 ft | 2 kts | 109° |
| 2026-05-06 05:12 | 31.14665 | 121.79723 | 29 ft | 2 kts | 132° |
| 2026-05-06 05:12 | 31.14677 | 121.79713 | 29 ft | 2 kts | 155° |
| 2026-05-06 05:12 | 31.14683 | 121.79710 | 29 ft | 0 kts | 161° |
| 2026-05-06 05:12 | 31.14691 | 121.79708 | 30 ft | 1 kts | 56° |
| 2026-05-06 05:13 | 31.14681 | 121.79703 | 29 ft | 0 kts | 30° |
| 2026-05-06 05:13 | 31.14678 | 121.79700 | 29 ft | 0 kts | 48° |
| 2026-05-06 05:13 | 31.14675 | 121.79697 | 29 ft | 0 kts | 66° |
| 2026-05-06 05:13 | 31.14673 | 121.79692 | 29 ft | 0 kts | 83° |
| 2026-05-06 05:14 | 31.14673 | 121.79688 | 29 ft | 0 kts | 100° |
| 2026-05-06 05:14 | 31.14674 | 121.79685 | 29 ft | 0 kts | 101° |
| 2026-05-06 05:15 | 31.14673 | 121.79686 | 29 ft | 0 kts | 102° |
| 2026-05-06 05:16 | 31.14669 | 121.79697 | 29 ft | 2 kts | 121° |
| 2026-05-06 05:16 | 31.14653 | 121.79712 | 29 ft | 3 kts | 155° |
| 2026-05-06 05:16 | 31.14607 | 121.79696 | 29 ft | 12 kts | 220° |
| 2026-05-06 05:16 | 31.14581 | 121.79639 | 29 ft | 3 kts | 252° |
| 2026-05-06 05:17 | 31.14572 | 121.79604 | 29 ft | 5 kts | 252° |
| 2026-05-06 05:17 | 31.14558 | 121.79554 | 29 ft | 7 kts | 252° |
| 2026-05-06 05:17 | 31.14541 | 121.79492 | 29 ft | 8 kts | 252° |
| 2026-05-06 05:17 | 31.14548 | 121.79427 | 29 ft | 8 kts | 310° |
| 2026-05-06 05:18 | 31.14609 | 121.79397 | 29 ft | 10 kts | 341° |
| 2026-05-06 05:18 | 31.14690 | 121.79365 | 29 ft | 23 kts | 341° |
| 2026-05-06 05:18 | 31.14897 | 121.79285 | 29 ft | 31 kts | 342° |
| 2026-05-06 05:18 | 31.15103 | 121.79207 | 29 ft | 30 kts | 342° |
| 2026-05-06 05:19 | 31.15300 | 121.79132 | 29 ft | 28 kts | 342° |
| 2026-05-06 05:19 | 31.15485 | 121.79062 | 29 ft | 27 kts | 342° |
| 2026-05-06 05:19 | 31.15659 | 121.78996 | 29 ft | 25 kts | 342° |
| 2026-05-06 05:19 | 31.15827 | 121.78932 | 29 ft | 24 kts | 342° |
| 2026-05-06 05:20 | 31.15989 | 121.78870 | 29 ft | 23 kts | 340° |
| 2026-05-06 05:20 | 31.16117 | 121.78820 | 29 ft | 17 kts | 340° |
| 2026-05-06 05:20 | 31.16146 | 121.78734 | 29 ft | 10 kts | 259° |
| 2026-05-06 05:20 | 31.16126 | 121.78654 | 29 ft | 10 kts | 250° |
| 2026-05-06 05:21 | 31.16071 | 121.78621 | 29 ft | 10 kts | 165° |
| 2026-05-06 05:21 | 31.15989 | 121.78653 | 29 ft | 26 kts | 161° |
| 2026-05-06 05:21 | 31.15557 | 121.78816 | 30 ft | 100 kts | 162° |
| 2026-05-06 05:21 | 31.14691 | 121.79150 | 31 ft | 159 kts | 161° |
| 2026-05-06 05:22 | 31.13608 | 121.79559 | 685 ft | 161 kts | 163° |
| 2026-05-06 05:22 | 31.12549 | 121.79894 | 1386 ft | 164 kts | 165° |
| 2026-05-06 05:22 | 31.11437 | 121.80249 | 2063 ft | 167 kts | 163° |
| 2026-05-06 05:22 | 31.10272 | 121.80646 | 2421 ft | 183 kts | 163° |
| 2026-05-06 05:23 | 31.08962 | 121.81084 | 2780 ft | 201 kts | 164° |
| 2026-05-06 05:23 | 31.07557 | 121.81548 | 3145 ft | 219 kts | 164° |
| 2026-05-06 05:23 | 31.04392 | 121.82581 | 3905 ft | 254 kts | 164° |
| 2026-05-06 05:24 | 31.02645 | 121.83119 | 4502 ft | 262 kts | 170° |
| 2026-05-06 05:24 | 31.00818 | 121.82994 | 5128 ft | 268 kts | 199° |
| 2026-05-06 05:24 | 30.99230 | 121.81854 | 5662 ft | 272 kts | 226° |
| 2026-05-06 05:24 | 30.98283 | 121.79960 | 5887 ft | 275 kts | 251° |
| 2026-05-06 05:25 | 30.97715 | 121.77807 | 5899 ft | 275 kts | 252° |
| 2026-05-06 05:25 | 30.97156 | 121.75684 | 5893 ft | 274 kts | 251° |
| 2026-05-06 05:25 | 30.96590 | 121.73560 | 5876 ft | 274 kts | 253° |
| 2026-05-06 05:25 | 30.96335 | 121.71368 | 5874 ft | 276 kts | 271° |
| 2026-05-06 05:26 | 30.96616 | 121.69089 | 6156 ft | 283 kts | 281° |
| 2026-05-06 05:26 | 30.97040 | 121.66863 | 6923 ft | 282 kts | 282° |
| 2026-05-06 05:26 | 30.97464 | 121.64669 | 7616 ft | 280 kts | 282° |
| 2026-05-06 05:26 | 30.97885 | 121.62454 | 8286 ft | 282 kts | 282° |
| 2026-05-06 05:27 | 30.98305 | 121.60221 | 9031 ft | 283 kts | 282° |
| 2026-05-06 05:27 | 30.98722 | 121.57976 | 9656 ft | 286 kts | 283° |
| 2026-05-06 05:27 | 30.99140 | 121.55714 | 10250 ft | 288 kts | 283° |
| 2026-05-06 05:27 | 30.99589 | 121.53382 | 10609 ft | 301 kts | 286° |
| 2026-05-06 05:28 | 31.00219 | 121.50970 | 10893 ft | 317 kts | 288° |
| 2026-05-06 05:28 | 31.00916 | 121.48493 | 11120 ft | 332 kts | 289° |
| 2026-05-06 05:28 | 31.01664 | 121.45828 | 11315 ft | 347 kts | 289° |
| 2026-05-06 05:28 | 31.02414 | 121.43118 | 11785 ft | 354 kts | 288° |
| 2026-05-06 05:29 | 31.03172 | 121.40346 | 12411 ft | 357 kts | 288° |
| 2026-05-06 05:29 | 31.03540 | 121.38994 | 12725 ft | 358 kts | 288° |
| 2026-05-06 05:29 | 31.04155 | 121.36721 | 13200 ft | 361 kts | 288° |
| 2026-05-06 05:29 | 31.04516 | 121.35385 | 13462 ft | 362 kts | 288° |
| 2026-05-06 05:30 | 31.05150 | 121.33034 | 13906 ft | 365 kts | 288° |
| 2026-05-06 05:30 | 31.05758 | 121.30769 | 14338 ft | 367 kts | 288° |
| 2026-05-06 05:30 | 31.06522 | 121.27926 | 14953 ft | 369 kts | 288° |
| 2026-05-06 05:30 | 31.07293 | 121.25052 | 15587 ft | 371 kts | 288° |
| 2026-05-06 05:31 | 31.08058 | 121.22189 | 16181 ft | 372 kts | 288° |
| 2026-05-06 05:31 | 31.08820 | 121.19337 | 16782 ft | 374 kts | 288° |
| 2026-05-06 05:31 | 31.09598 | 121.16425 | 17406 ft | 376 kts | 288° |
| 2026-05-06 05:31 | 31.10370 | 121.13532 | 18024 ft | 378 kts | 288° |
| 2026-05-06 05:32 | 31.11153 | 121.10590 | 18573 ft | 381 kts | 288° |
| 2026-05-06 05:32 | 31.11944 | 121.07616 | 19114 ft | 383 kts | 288° |
| 2026-05-06 05:32 | 31.12734 | 121.04641 | 19662 ft | 386 kts | 288° |
| 2026-05-06 05:32 | 31.13526 | 121.01659 | 20188 ft | 388 kts | 288° |
| 2026-05-06 05:33 | 31.14318 | 120.98673 | 20690 ft | 391 kts | 288° |
| 2026-05-06 05:33 | 31.15127 | 120.95627 | 21172 ft | 394 kts | 288° |
| 2026-05-06 05:33 | 31.15939 | 120.92560 | 21660 ft | 396 kts | 288° |
| 2026-05-06 05:33 | 31.16742 | 120.89523 | 22104 ft | 398 kts | 288° |
| 2026-05-06 05:34 | 31.17563 | 120.86414 | 22566 ft | 400 kts | 288° |
| 2026-05-06 05:34 | 31.18385 | 120.83298 | 23025 ft | 403 kts | 288° |
| 2026-05-06 05:34 | 31.19206 | 120.80180 | 23469 ft | 405 kts | 288° |
| 2026-05-06 05:34 | 31.20028 | 120.77058 | 23932 ft | 407 kts | 288° |
| 2026-05-06 05:35 | 31.20866 | 120.73874 | 24316 ft | 411 kts | 288° |
| 2026-05-06 05:35 | 31.21707 | 120.70670 | 24666 ft | 415 kts | 288° |
| 2026-05-06 05:35 | 31.22546 | 120.67476 | 25082 ft | 417 kts | 288° |
| 2026-05-06 05:35 | 31.23394 | 120.64240 | 25496 ft | 419 kts | 288° |
| 2026-05-06 05:36 | 31.24250 | 120.60966 | 25904 ft | 421 kts | 288° |
| 2026-05-06 05:36 | 31.25100 | 120.57713 | 26321 ft | 423 kts | 288° |
| 2026-05-06 05:36 | 31.25955 | 120.54440 | 26726 ft | 424 kts | 288° |
| 2026-05-06 05:36 | 31.26820 | 120.51125 | 27092 ft | 426 kts | 288° |
| 2026-05-06 05:37 | 31.27678 | 120.47831 | 27429 ft | 429 kts | 288° |
| 2026-05-06 05:37 | 31.28552 | 120.44476 | 27809 ft | 430 kts | 288° |
| 2026-05-06 05:37 | 31.29420 | 120.41134 | 28164 ft | 432 kts | 288° |
| 2026-05-06 05:37 | 31.30289 | 120.37788 | 28481 ft | 434 kts | 288° |
| 2026-05-06 05:38 | 31.31170 | 120.34392 | 28789 ft | 437 kts | 288° |
| 2026-05-06 05:38 | 31.32046 | 120.31008 | 29104 ft | 439 kts | 288° |
| 2026-05-06 05:38 | 31.32937 | 120.27568 | 29422 ft | 441 kts | 287° |
| 2026-05-06 05:38 | 31.33826 | 120.24122 | 29741 ft | 443 kts | 288° |
| 2026-05-06 05:39 | 31.34708 | 120.20697 | 30043 ft | 445 kts | 288° |
| 2026-05-06 05:39 | 31.35599 | 120.17239 | 30335 ft | 447 kts | 288° |
| 2026-05-06 05:39 | 31.36501 | 120.13732 | 30629 ft | 449 kts | 288° |
| 2026-05-06 05:39 | 31.37396 | 120.10252 | 30929 ft | 450 kts | 288° |
| 2026-05-06 05:40 | 31.38299 | 120.06740 | 31207 ft | 452 kts | 288° |
| 2026-05-06 05:40 | 31.39204 | 120.03208 | 31520 ft | 452 kts | 288° |
| 2026-05-06 05:40 | 31.40094 | 119.99732 | 31925 ft | 451 kts | 288° |
| 2026-05-06 05:40 | 31.40990 | 119.96227 | 32355 ft | 448 kts | 288° |
| 2026-05-06 05:41 | 31.41878 | 119.92750 | 32786 ft | 446 kts | 288° |
| 2026-05-06 05:41 | 31.42755 | 119.89312 | 33162 ft | 444 kts | 288° |
| 2026-05-06 05:41 | 31.43634 | 119.85861 | 33557 ft | 443 kts | 288° |
| 2026-05-06 05:41 | 31.44511 | 119.82415 | 33933 ft | 442 kts | 288° |
| 2026-05-06 05:42 | 31.45388 | 119.78961 | 34336 ft | 440 kts | 288° |
| 2026-05-06 05:42 | 31.46251 | 119.75564 | 34747 ft | 438 kts | 288° |
| 2026-05-06 05:42 | 31.47111 | 119.72171 | 35139 ft | 436 kts | 288° |
| 2026-05-06 05:42 | 31.47969 | 119.68784 | 35534 ft | 433 kts | 288° |
| 2026-05-06 05:43 | 31.48824 | 119.65404 | 35903 ft | 431 kts | 288° |
| 2026-05-06 05:43 | 31.49676 | 119.62033 | 36262 ft | 429 kts | 288° |
| 2026-05-06 05:43 | 31.50524 | 119.58665 | 36575 ft | 428 kts | 288° |
| 2026-05-06 05:43 | 31.51370 | 119.55307 | 36882 ft | 426 kts | 289° |
| 2026-05-06 05:44 | 31.52217 | 119.51940 | 37129 ft | 426 kts | 288° |
| 2026-05-06 05:44 | 31.53058 | 119.48595 | 37383 ft | 425 kts | 288° |
| 2026-05-06 05:44 | 31.53884 | 119.45309 | 37627 ft | 425 kts | 288° |
| 2026-05-06 05:44 | 31.54715 | 119.41994 | 37869 ft | 424 kts | 289° |
| 2026-05-06 05:45 | 31.55548 | 119.38668 | 38082 ft | 423 kts | 288° |
| 2026-05-06 05:45 | 31.56378 | 119.35349 | 38347 ft | 422 kts | 288° |
| 2026-05-06 05:45 | 31.57202 | 119.32044 | 38583 ft | 421 kts | 288° |
| 2026-05-06 05:45 | 31.58028 | 119.28732 | 38800 ft | 421 kts | 288° |
| 2026-05-06 05:46 | 31.58842 | 119.25465 | 39028 ft | 420 kts | 288° |
| 2026-05-06 05:46 | 31.59672 | 119.22126 | 39242 ft | 420 kts | 288° |
| 2026-05-06 05:46 | 31.60477 | 119.18884 | 39429 ft | 419 kts | 288° |
| 2026-05-06 05:46 | 31.61300 | 119.15571 | 39615 ft | 418 kts | 288° |
| 2026-05-06 05:47 | 31.62108 | 119.12305 | 39742 ft | 418 kts | 288° |
| 2026-05-06 05:47 | 31.62919 | 119.09023 | 39885 ft | 418 kts | 288° |
| 2026-05-06 05:47 | 31.64469 | 119.02492 | 39959 ft | 419 kts | 285° |
| 2026-05-06 05:48 | 31.65571 | 118.95744 | 39964 ft | 420 kts | 280° |
| 2026-05-06 05:48 | 31.66176 | 118.88903 | 39965 ft | 424 kts | 278° |
| 2026-05-06 05:49 | 31.66698 | 118.82005 | 39965 ft | 428 kts | 278° |
| 2026-05-06 05:49 | 31.67217 | 118.75021 | 39958 ft | 433 kts | 278° |
| 2026-05-06 05:50 | 31.67737 | 118.67953 | 39959 ft | 437 kts | 277° |
| 2026-05-06 05:50 | 31.68263 | 118.60766 | 39952 ft | 438 kts | 278° |
| 2026-05-06 05:51 | 31.68759 | 118.53953 | 39956 ft | 438 kts | 277° |
| 2026-05-06 05:51 | 31.69271 | 118.46807 | 39953 ft | 438 kts | 277° |
| 2026-05-06 05:52 | 31.69777 | 118.39677 | 39951 ft | 438 kts | 277° |
| 2026-05-06 05:52 | 31.70282 | 118.32527 | 39950 ft | 439 kts | 276° |
| 2026-05-06 05:53 | 31.70782 | 118.25372 | 39949 ft | 439 kts | 277° |
| 2026-05-06 05:53 | 31.71173 | 118.18255 | 39953 ft | 441 kts | 274° |
| 2026-05-06 05:54 | 31.71025 | 118.11018 | 39952 ft | 442 kts | 268° |
| 2026-05-06 05:54 | 31.70281 | 118.03851 | 39958 ft | 443 kts | 263° |
| 2026-05-06 05:55 | 31.68974 | 117.96761 | 39957 ft | 446 kts | 260° |
| 2026-05-06 05:55 | 31.67518 | 117.89667 | 39955 ft | 446 kts | 260° |
| 2026-05-06 05:56 | 31.66070 | 117.82645 | 39955 ft | 445 kts | 260° |
| 2026-05-06 05:56 | 31.64605 | 117.75569 | 39951 ft | 446 kts | 259° |
| 2026-05-06 05:57 | 31.63135 | 117.68503 | 39950 ft | 446 kts | 259° |
| 2026-05-06 05:57 | 31.61660 | 117.61429 | 39946 ft | 446 kts | 259° |
| 2026-05-06 05:58 | 31.60288 | 117.54376 | 39945 ft | 445 kts | 261° |
| 2026-05-06 05:58 | 31.59027 | 117.47266 | 39940 ft | 445 kts | 262° |
| 2026-05-06 05:59 | 31.57766 | 117.40190 | 39936 ft | 445 kts | 261° |
| 2026-05-06 05:59 | 31.56490 | 117.33066 | 39936 ft | 445 kts | 261° |
| 2026-05-06 06:00 | 31.55227 | 117.25997 | 39932 ft | 445 kts | 261° |
| 2026-05-06 06:00 | 31.53975 | 117.18888 | 39931 ft | 445 kts | 261° |
| 2026-05-06 06:01 | 31.52714 | 117.11766 | 39928 ft | 445 kts | 261° |
| 2026-05-06 06:01 | 31.51455 | 117.04690 | 39934 ft | 445 kts | 261° |
| 2026-05-06 06:02 | 31.50194 | 116.97624 | 39931 ft | 445 kts | 261° |
| 2026-05-06 06:02 | 31.48548 | 116.90618 | 39937 ft | 448 kts | 254° |
| 2026-05-06 06:03 | 31.46166 | 116.83889 | 39936 ft | 451 kts | 247° |
| 2026-05-06 06:03 | 31.43070 | 116.77522 | 39944 ft | 455 kts | 240° |
| 2026-05-06 06:04 | 31.39321 | 116.71506 | 39948 ft | 457 kts | 237° |
| 2026-05-06 06:04 | 31.35449 | 116.65582 | 39958 ft | 456 kts | 237° |
| 2026-05-06 06:05 | 31.31599 | 116.59705 | 39977 ft | 456 kts | 237° |
| 2026-05-06 06:05 | 31.27749 | 116.53835 | 39996 ft | 457 kts | 237° |
| 2026-05-06 06:06 | 31.23866 | 116.47925 | 40014 ft | 457 kts | 237° |
| 2026-05-06 06:06 | 31.20017 | 116.42075 | 40033 ft | 456 kts | 237° |
| 2026-05-06 06:07 | 31.16153 | 116.36210 | 40038 ft | 457 kts | 237° |
| 2026-05-06 06:07 | 31.12253 | 116.30302 | 40045 ft | 458 kts | 236° |
| 2026-05-06 06:08 | 31.08370 | 116.24426 | 40050 ft | 458 kts | 236° |
| 2026-05-06 06:08 | 31.04474 | 116.18540 | 40058 ft | 458 kts | 236° |
| 2026-05-06 06:09 | 31.00584 | 116.12670 | 40048 ft | 458 kts | 236° |
| 2026-05-06 06:09 | 30.96676 | 116.06786 | 40061 ft | 458 kts | 236° |
| 2026-05-06 06:10 | 30.92796 | 116.00948 | 40028 ft | 457 kts | 236° |
| 2026-05-06 06:10 | 30.88894 | 115.95090 | 40014 ft | 457 kts | 236° |
| 2026-05-06 06:11 | 30.84980 | 115.89220 | 40007 ft | 457 kts | 236° |
| 2026-05-06 06:11 | 30.81145 | 115.83401 | 39987 ft | 457 kts | 236° |
| 2026-05-06 06:12 | 30.77287 | 115.77542 | 39970 ft | 456 kts | 237° |
| 2026-05-06 06:12 | 30.73415 | 115.71670 | 39962 ft | 456 kts | 237° |
| 2026-05-06 06:13 | 30.69540 | 115.65808 | 39954 ft | 457 kts | 237° |
| 2026-05-06 06:13 | 30.65656 | 115.59950 | 39956 ft | 455 kts | 237° |
| 2026-05-06 06:14 | 30.61781 | 115.54108 | 39948 ft | 456 kts | 236° |
| 2026-05-06 06:14 | 30.57905 | 115.48275 | 39950 ft | 456 kts | 237° |
| 2026-05-06 06:15 | 30.53992 | 115.42394 | 39943 ft | 457 kts | 237° |
| 2026-05-06 06:15 | 30.50119 | 115.36559 | 39931 ft | 456 kts | 239° |
| 2026-05-06 06:16 | 30.47009 | 115.30194 | 39931 ft | 449 kts | 250° |
| 2026-05-06 06:16 | 30.45219 | 115.23346 | 39927 ft | 444 kts | 262° |
| 2026-05-06 06:17 | 30.44742 | 115.16235 | 39928 ft | 443 kts | 273° |
| 2026-05-06 06:17 | 30.45331 | 115.09170 | 39929 ft | 441 kts | 277° |
| 2026-05-06 06:18 | 30.46063 | 115.02090 | 39918 ft | 440 kts | 277° |
| 2026-05-06 06:18 | 30.46787 | 114.95083 | 39913 ft | 441 kts | 277° |
| 2026-05-06 06:19 | 30.47510 | 114.88029 | 39907 ft | 441 kts | 277° |
| 2026-05-06 06:19 | 30.48227 | 114.81003 | 39906 ft | 441 kts | 277° |
| 2026-05-06 06:20 | 30.48944 | 114.73933 | 39904 ft | 441 kts | 277° |
| 2026-05-06 06:20 | 30.49653 | 114.66888 | 39895 ft | 440 kts | 277° |
| 2026-05-06 06:21 | 30.50350 | 114.59905 | 39885 ft | 440 kts | 277° |
| 2026-05-06 06:21 | 30.51056 | 114.52839 | 39885 ft | 440 kts | 277° |
| 2026-05-06 06:22 | 30.51753 | 114.45801 | 39888 ft | 440 kts | 277° |
| 2026-05-06 06:22 | 30.52448 | 114.38743 | 39877 ft | 440 kts | 277° |
| 2026-05-06 06:23 | 30.53136 | 114.31697 | 39878 ft | 439 kts | 276° |
| 2026-05-06 06:23 | 30.53814 | 114.24702 | 39881 ft | 438 kts | 276° |
| 2026-05-06 06:24 | 30.54494 | 114.17642 | 39879 ft | 438 kts | 276° |
| 2026-05-06 06:24 | 30.55159 | 114.10606 | 39880 ft | 437 kts | 276° |
| 2026-05-06 06:25 | 30.55835 | 114.03623 | 39872 ft | 437 kts | 277° |
| 2026-05-06 06:26 | 30.56682 | 113.93108 | 39881 ft | 438 kts | 271° |
| 2026-05-06 06:26 | 30.56184 | 113.86087 | 39878 ft | 439 kts | 261° |
| 2026-05-06 06:27 | 30.54576 | 113.79267 | 39877 ft | 443 kts | 252° |
| 2026-05-06 06:27 | 30.51873 | 113.72827 | 39873 ft | 447 kts | 242° |
| 2026-05-06 06:28 | 30.48533 | 113.66721 | 39879 ft | 448 kts | 241° |
| 2026-05-06 06:28 | 30.45173 | 113.60663 | 39878 ft | 448 kts | 241° |
| 2026-05-06 06:29 | 30.41817 | 113.54635 | 39870 ft | 448 kts | 241° |
| 2026-05-06 06:29 | 30.38435 | 113.48566 | 39864 ft | 448 kts | 241° |
| 2026-05-06 06:30 | 30.35042 | 113.42483 | 39856 ft | 448 kts | 241° |
| 2026-05-06 06:30 | 30.31649 | 113.36410 | 39855 ft | 448 kts | 241° |
| 2026-05-06 06:31 | 30.28260 | 113.30355 | 39858 ft | 448 kts | 241° |
| 2026-05-06 06:31 | 30.24829 | 113.24234 | 39853 ft | 448 kts | 240° |
| 2026-05-06 06:32 | 30.21410 | 113.18148 | 39848 ft | 449 kts | 241° |
| 2026-05-06 06:32 | 30.18053 | 113.12056 | 39851 ft | 449 kts | 241° |
| 2026-05-06 06:33 | 30.14672 | 113.05901 | 39852 ft | 449 kts | 242° |
| 2026-05-06 06:33 | 30.11316 | 112.99813 | 39844 ft | 448 kts | 242° |
| 2026-05-06 06:34 | 30.07946 | 112.93708 | 39851 ft | 447 kts | 242° |
| 2026-05-06 06:34 | 30.04564 | 112.87595 | 39846 ft | 448 kts | 242° |
| 2026-05-06 06:35 | 30.01202 | 112.81529 | 39848 ft | 447 kts | 242° |
| 2026-05-06 06:35 | 29.97831 | 112.75455 | 39856 ft | 448 kts | 242° |
| 2026-05-06 06:36 | 29.94475 | 112.69410 | 39853 ft | 448 kts | 242° |
| 2026-05-06 06:36 | 29.91087 | 112.63327 | 39841 ft | 448 kts | 242° |
| 2026-05-06 06:37 | 29.87712 | 112.57272 | 39847 ft | 448 kts | 242° |
| 2026-05-06 06:37 | 29.84329 | 112.51215 | 39841 ft | 447 kts | 242° |
| 2026-05-06 06:38 | 29.80941 | 112.45160 | 39844 ft | 447 kts | 242° |
| 2026-05-06 06:38 | 29.77561 | 112.39121 | 39840 ft | 448 kts | 242° |
| 2026-05-06 06:39 | 29.74183 | 112.33099 | 39834 ft | 448 kts | 242° |
| 2026-05-06 06:39 | 29.70771 | 112.27046 | 39837 ft | 447 kts | 242° |
| 2026-05-06 06:40 | 29.67345 | 112.20990 | 39831 ft | 449 kts | 242° |
| 2026-05-06 06:40 | 29.63930 | 112.14964 | 39832 ft | 448 kts | 241° |
| 2026-05-06 06:41 | 29.60532 | 112.08974 | 39841 ft | 448 kts | 241° |
| 2026-05-06 06:41 | 29.57086 | 112.02912 | 39831 ft | 448 kts | 242° |
| 2026-05-06 06:42 | 29.53685 | 111.96933 | 39838 ft | 448 kts | 242° |
| 2026-05-06 06:42 | 29.50278 | 111.90955 | 39834 ft | 449 kts | 242° |
| 2026-05-06 06:43 | 29.46865 | 111.84972 | 39832 ft | 448 kts | 242° |
| 2026-05-06 06:43 | 29.43464 | 111.79023 | 39846 ft | 448 kts | 242° |
| 2026-05-06 06:44 | 29.40036 | 111.73034 | 39842 ft | 449 kts | 242° |
| 2026-05-06 06:44 | 29.36748 | 111.66990 | 39844 ft | 445 kts | 245° |
| 2026-05-06 06:45 | 29.33983 | 111.60709 | 39853 ft | 442 kts | 250° |
| 2026-05-06 06:45 | 29.31666 | 111.54225 | 39850 ft | 440 kts | 252° |
| 2026-05-06 06:46 | 29.29395 | 111.47704 | 39850 ft | 441 kts | 252° |
| 2026-05-06 06:46 | 29.27136 | 111.41232 | 39850 ft | 441 kts | 252° |
| 2026-05-06 06:47 | 29.24861 | 111.34708 | 39854 ft | 440 kts | 252° |
| 2026-05-06 06:47 | 29.22588 | 111.28204 | 39849 ft | 440 kts | 252° |
| 2026-05-06 06:48 | 29.20316 | 111.21716 | 39857 ft | 440 kts | 252° |
| 2026-05-06 06:48 | 29.18048 | 111.15248 | 39871 ft | 439 kts | 252° |
| 2026-05-06 06:49 | 29.15767 | 111.08763 | 39876 ft | 439 kts | 252° |
| 2026-05-06 06:49 | 29.13502 | 111.02331 | 39884 ft | 439 kts | 252° |
| 2026-05-06 06:50 | 29.11227 | 110.95878 | 39887 ft | 438 kts | 252° |
| 2026-05-06 06:50 | 29.08950 | 110.89427 | 39898 ft | 438 kts | 252° |
| 2026-05-06 06:51 | 29.06667 | 110.82983 | 39899 ft | 438 kts | 252° |
| 2026-05-06 06:51 | 29.04373 | 110.76512 | 39898 ft | 438 kts | 252° |
| 2026-05-06 06:52 | 29.02105 | 110.70110 | 39906 ft | 438 kts | 252° |
| 2026-05-06 06:52 | 28.99860 | 110.63678 | 39918 ft | 438 kts | 252° |
| 2026-05-06 06:53 | 28.97595 | 110.57200 | 39927 ft | 438 kts | 252° |
| 2026-05-06 06:53 | 28.95329 | 110.50745 | 39935 ft | 439 kts | 252° |
| 2026-05-06 06:54 | 28.93062 | 110.44301 | 39937 ft | 439 kts | 252° |
| 2026-05-06 06:54 | 28.90784 | 110.37834 | 39937 ft | 439 kts | 252° |
| 2026-05-06 06:55 | 28.88507 | 110.31383 | 39939 ft | 439 kts | 251° |
| 2026-05-06 06:55 | 28.86209 | 110.24888 | 39939 ft | 439 kts | 251° |
| 2026-05-06 06:56 | 28.83933 | 110.18458 | 39942 ft | 438 kts | 251° |
| 2026-05-06 06:56 | 28.81629 | 110.11970 | 39946 ft | 438 kts | 251° |
| 2026-05-06 06:57 | 28.79349 | 110.05559 | 39951 ft | 439 kts | 251° |
| 2026-05-06 06:57 | 28.77051 | 109.99107 | 39958 ft | 439 kts | 251° |
| 2026-05-06 06:58 | 28.74761 | 109.92690 | 39950 ft | 438 kts | 251° |
| 2026-05-06 06:58 | 28.72478 | 109.86304 | 39935 ft | 438 kts | 251° |
| 2026-05-06 06:59 | 28.70182 | 109.79894 | 39927 ft | 437 kts | 251° |
| 2026-05-06 06:59 | 28.67876 | 109.73468 | 39917 ft | 437 kts | 251° |
| 2026-05-06 07:00 | 28.65584 | 109.67092 | 39917 ft | 437 kts | 251° |
| 2026-05-06 07:00 | 28.63333 | 109.60601 | 39920 ft | 438 kts | 252° |
| 2026-05-06 07:01 | 28.61136 | 109.54138 | 39928 ft | 438 kts | 252° |
| 2026-05-06 07:01 | 28.58916 | 109.47663 | 39936 ft | 438 kts | 252° |
| 2026-05-06 07:02 | 28.56378 | 109.41316 | 39938 ft | 440 kts | 248° |
| 2026-05-06 07:02 | 28.53631 | 109.35044 | 39932 ft | 440 kts | 248° |
| 2026-05-06 07:03 | 28.50889 | 109.28798 | 39927 ft | 440 kts | 247° |
| 2026-05-06 07:03 | 28.48135 | 109.22540 | 39919 ft | 440 kts | 247° |
| 2026-05-06 07:04 | 28.45388 | 109.16310 | 39924 ft | 440 kts | 247° |
| 2026-05-06 07:04 | 28.42644 | 109.10104 | 39930 ft | 440 kts | 247° |
| 2026-05-06 07:05 | 28.39871 | 109.03851 | 39935 ft | 439 kts | 247° |
| 2026-05-06 07:05 | 28.37113 | 108.97642 | 39939 ft | 439 kts | 247° |
| 2026-05-06 07:06 | 28.34334 | 108.91397 | 39946 ft | 438 kts | 247° |
| 2026-05-06 07:06 | 28.31582 | 108.85222 | 39957 ft | 438 kts | 247° |
| 2026-05-06 07:07 | 28.28835 | 108.79068 | 39965 ft | 438 kts | 247° |
| 2026-05-06 07:07 | 28.26078 | 108.72898 | 39969 ft | 438 kts | 247° |
| 2026-05-06 07:08 | 28.23331 | 108.66763 | 39962 ft | 439 kts | 247° |
| 2026-05-06 07:08 | 28.20553 | 108.60566 | 39955 ft | 439 kts | 247° |
| 2026-05-06 07:09 | 28.17758 | 108.54340 | 39950 ft | 439 kts | 247° |
| 2026-05-06 07:09 | 28.14966 | 108.48134 | 39946 ft | 440 kts | 247° |
| 2026-05-06 07:10 | 28.12172 | 108.41931 | 39950 ft | 439 kts | 247° |
| 2026-05-06 07:10 | 28.09382 | 108.35747 | 39952 ft | 440 kts | 247° |
| 2026-05-06 07:11 | 28.06606 | 108.29602 | 39955 ft | 439 kts | 246° |
| 2026-05-06 07:11 | 28.03806 | 108.23412 | 39952 ft | 439 kts | 246° |
| 2026-05-06 07:12 | 28.00993 | 108.17210 | 39949 ft | 439 kts | 246° |
| 2026-05-06 07:12 | 27.98221 | 108.11101 | 39946 ft | 439 kts | 246° |
| 2026-05-06 07:13 | 27.95399 | 108.04890 | 39945 ft | 439 kts | 246° |
| 2026-05-06 07:13 | 27.92570 | 107.98674 | 39943 ft | 439 kts | 246° |
| 2026-05-06 07:14 | 27.89765 | 107.92522 | 39948 ft | 439 kts | 246° |
| 2026-05-06 07:14 | 27.86974 | 107.86414 | 39956 ft | 439 kts | 246° |
| 2026-05-06 07:15 | 27.84142 | 107.80223 | 39964 ft | 440 kts | 246° |
| 2026-05-06 07:15 | 27.81351 | 107.74067 | 39977 ft | 440 kts | 247° |
| 2026-05-06 07:16 | 27.78592 | 107.67858 | 39984 ft | 441 kts | 247° |
| 2026-05-06 07:16 | 27.75815 | 107.61626 | 39981 ft | 441 kts | 247° |
| 2026-05-06 07:17 | 27.73049 | 107.55438 | 39979 ft | 441 kts | 246° |
| 2026-05-06 07:17 | 27.70300 | 107.49300 | 39977 ft | 441 kts | 247° |
| 2026-05-06 07:18 | 27.67520 | 107.43105 | 39979 ft | 441 kts | 247° |
| 2026-05-06 07:18 | 27.64757 | 107.36955 | 39983 ft | 441 kts | 247° |
| 2026-05-06 07:19 | 27.61979 | 107.30782 | 39986 ft | 440 kts | 246° |
| 2026-05-06 07:19 | 27.59192 | 107.24599 | 39986 ft | 441 kts | 246° |
| 2026-05-06 07:20 | 27.56417 | 107.18445 | 39994 ft | 441 kts | 246° |
| 2026-05-06 07:20 | 27.53628 | 107.12264 | 40000 ft | 442 kts | 246° |
| 2026-05-06 07:21 | 27.50828 | 107.06068 | 40002 ft | 442 kts | 246° |
| 2026-05-06 07:21 | 27.48031 | 106.99888 | 40001 ft | 442 kts | 246° |
| 2026-05-06 07:22 | 27.45260 | 106.93714 | 39994 ft | 442 kts | 246° |
| 2026-05-06 07:22 | 27.42497 | 106.87520 | 39991 ft | 443 kts | 246° |
| 2026-05-06 07:23 | 27.39719 | 106.81310 | 39987 ft | 442 kts | 246° |
| 2026-05-06 07:23 | 27.36942 | 106.75115 | 39982 ft | 443 kts | 247° |
| 2026-05-06 07:24 | 27.34173 | 106.68967 | 39981 ft | 443 kts | 246° |
| 2026-05-06 07:24 | 27.31388 | 106.62806 | 39981 ft | 443 kts | 246° |
| 2026-05-06 07:25 | 27.28588 | 106.56622 | 39984 ft | 443 kts | 246° |
| 2026-05-06 07:25 | 27.25805 | 106.50484 | 39990 ft | 443 kts | 246° |
| 2026-05-06 07:26 | 27.23014 | 106.44336 | 40007 ft | 443 kts | 246° |
| 2026-05-06 07:26 | 27.20219 | 106.38187 | 40021 ft | 443 kts | 246° |
| 2026-05-06 07:27 | 27.17426 | 106.32044 | 40036 ft | 443 kts | 246° |
| 2026-05-06 07:27 | 27.14605 | 106.25842 | 40040 ft | 443 kts | 246° |
| 2026-05-06 07:28 | 27.11805 | 106.19702 | 40040 ft | 443 kts | 246° |
| 2026-05-06 07:28 | 27.07589 | 106.10442 | 40033 ft | 442 kts | 247° |
| 2026-05-06 07:29 | 27.05146 | 106.04083 | 40034 ft | 440 kts | 252° |
| 2026-05-06 07:29 | 27.03269 | 105.97578 | 40032 ft | 439 kts | 257° |
| 2026-05-06 07:30 | 27.01895 | 105.90933 | 40037 ft | 438 kts | 259° |
| 2026-05-06 07:30 | 27.00647 | 105.84413 | 40044 ft | 418 kts | 260° |
| 2026-05-06 07:31 | 26.99436 | 105.78077 | 40061 ft | 416 kts | 260° |
| 2026-05-06 07:31 | 26.98224 | 105.71736 | 40065 ft | 415 kts | 260° |
| 2026-05-06 07:32 | 26.97016 | 105.65427 | 40083 ft | 415 kts | 260° |
| 2026-05-06 07:32 | 26.95807 | 105.59127 | 40092 ft | 414 kts | 259° |
| 2026-05-06 07:33 | 26.94594 | 105.52827 | 40097 ft | 415 kts | 259° |
| 2026-05-06 07:33 | 26.93378 | 105.46532 | 40108 ft | 415 kts | 260° |
| 2026-05-06 07:34 | 26.92156 | 105.40215 | 40110 ft | 414 kts | 260° |
| 2026-05-06 07:34 | 26.90931 | 105.33910 | 40124 ft | 414 kts | 259° |
| 2026-05-06 07:35 | 26.89711 | 105.27638 | 40134 ft | 414 kts | 259° |
| 2026-05-06 07:35 | 26.88473 | 105.21287 | 40138 ft | 414 kts | 259° |
| 2026-05-06 07:36 | 26.87236 | 105.14954 | 40154 ft | 414 kts | 259° |
| 2026-05-06 07:36 | 26.85987 | 105.08581 | 40156 ft | 414 kts | 259° |
| 2026-05-06 07:37 | 26.84742 | 105.02249 | 40162 ft | 414 kts | 259° |
| 2026-05-06 07:37 | 26.83496 | 104.95930 | 40164 ft | 413 kts | 259° |
| 2026-05-06 07:38 | 26.82243 | 104.89598 | 40175 ft | 413 kts | 259° |
| 2026-05-06 07:38 | 26.80992 | 104.83292 | 40195 ft | 413 kts | 259° |
| 2026-05-06 07:39 | 26.79730 | 104.76978 | 40207 ft | 414 kts | 259° |
| 2026-05-06 07:39 | 26.78403 | 104.70666 | 40207 ft | 415 kts | 256° |
| 2026-05-06 07:40 | 26.77458 | 104.67609 | 39834 ft | 417 kts | 251° |
| 2026-05-06 07:40 | 26.76237 | 104.64657 | 39374 ft | 415 kts | 245° |
| 2026-05-06 07:40 | 26.74768 | 104.61852 | 38935 ft | 412 kts | 241° |
| 2026-05-06 07:40 | 26.73087 | 104.59242 | 38521 ft | 411 kts | 236° |
| 2026-05-06 07:41 | 26.71200 | 104.56827 | 38072 ft | 416 kts | 231° |
| 2026-05-06 07:41 | 26.69080 | 104.54587 | 37599 ft | 420 kts | 226° |
| 2026-05-06 07:41 | 26.66800 | 104.52467 | 37133 ft | 421 kts | 225° |
| 2026-05-06 07:41 | 26.64522 | 104.50384 | 36611 ft | 421 kts | 225° |
| 2026-05-06 07:42 | 26.62253 | 104.48319 | 36115 ft | 421 kts | 225° |
| 2026-05-06 07:42 | 26.59956 | 104.46233 | 35585 ft | 421 kts | 225° |
| 2026-05-06 07:42 | 26.57667 | 104.44154 | 35008 ft | 421 kts | 225° |
| 2026-05-06 07:42 | 26.55391 | 104.42088 | 34463 ft | 420 kts | 225° |
| 2026-05-06 07:43 | 26.53108 | 104.40020 | 33937 ft | 419 kts | 225° |
| 2026-05-06 07:43 | 26.50846 | 104.37971 | 33406 ft | 419 kts | 225° |
| 2026-05-06 07:43 | 26.48570 | 104.35908 | 32835 ft | 419 kts | 225° |
| 2026-05-06 07:43 | 26.46286 | 104.33840 | 32268 ft | 420 kts | 224° |
| 2026-05-06 07:44 | 26.44030 | 104.31795 | 31713 ft | 420 kts | 224° |
| 2026-05-06 07:44 | 26.41729 | 104.29715 | 31118 ft | 421 kts | 224° |
| 2026-05-06 07:44 | 26.39428 | 104.27632 | 30525 ft | 422 kts | 223° |
| 2026-05-06 07:44 | 26.37154 | 104.25577 | 29904 ft | 424 kts | 223° |
| 2026-05-06 07:45 | 26.34836 | 104.23484 | 29303 ft | 424 kts | 223° |
| 2026-05-06 07:45 | 26.32526 | 104.21401 | 28903 ft | 420 kts | 223° |
| 2026-05-06 07:45 | 26.30277 | 104.19376 | 28518 ft | 416 kts | 223° |
| 2026-05-06 07:45 | 26.28007 | 104.17333 | 28119 ft | 412 kts | 222° |
| 2026-05-06 07:46 | 26.25782 | 104.15331 | 27714 ft | 409 kts | 223° |
| 2026-05-06 07:46 | 26.23571 | 104.13341 | 27309 ft | 406 kts | 223° |
| 2026-05-06 07:46 | 26.21367 | 104.11360 | 26902 ft | 403 kts | 223° |
| 2026-05-06 07:46 | 26.19186 | 104.09397 | 26488 ft | 400 kts | 223° |
| 2026-05-06 07:47 | 26.16988 | 104.07422 | 26082 ft | 398 kts | 223° |
| 2026-05-06 07:47 | 26.14832 | 104.05482 | 25671 ft | 395 kts | 223° |
| 2026-05-06 07:47 | 26.12683 | 104.03551 | 25253 ft | 393 kts | 222° |
| 2026-05-06 07:47 | 26.10556 | 104.01641 | 24838 ft | 391 kts | 222° |
| 2026-05-06 07:48 | 26.08439 | 103.99739 | 24430 ft | 388 kts | 222° |
| 2026-05-06 07:48 | 26.06306 | 103.97828 | 24023 ft | 386 kts | 222° |
| 2026-05-06 07:48 | 26.04218 | 103.95958 | 23610 ft | 384 kts | 222° |
| 2026-05-06 07:48 | 26.02142 | 103.94098 | 23183 ft | 383 kts | 222° |
| 2026-05-06 07:49 | 26.00059 | 103.92216 | 22789 ft | 379 kts | 225° |
| 2026-05-06 07:49 | 25.98172 | 103.90170 | 22392 ft | 375 kts | 231° |
| 2026-05-06 07:49 | 25.96542 | 103.87926 | 21997 ft | 371 kts | 237° |
| 2026-05-06 07:49 | 25.95141 | 103.85498 | 21581 ft | 369 kts | 241° |
| 2026-05-06 07:50 | 25.93846 | 103.83057 | 21171 ft | 368 kts | 242° |
| 2026-05-06 07:50 | 25.92544 | 103.80573 | 20750 ft | 367 kts | 242° |
| 2026-05-06 07:50 | 25.91260 | 103.78127 | 20348 ft | 366 kts | 242° |
| 2026-05-06 07:50 | 25.89957 | 103.75697 | 19946 ft | 366 kts | 239° |
| 2026-05-06 07:51 | 25.88383 | 103.73444 | 19522 ft | 368 kts | 231° |
| 2026-05-06 07:51 | 25.86515 | 103.71470 | 19111 ft | 371 kts | 223° |
| 2026-05-06 07:51 | 25.84417 | 103.69745 | 18710 ft | 371 kts | 219° |
| 2026-05-06 07:51 | 25.82302 | 103.68098 | 18304 ft | 371 kts | 219° |
| 2026-05-06 07:52 | 25.80169 | 103.66454 | 17897 ft | 371 kts | 219° |
| 2026-05-06 07:52 | 25.78021 | 103.64794 | 17489 ft | 370 kts | 219° |
| 2026-05-06 07:52 | 25.75892 | 103.63148 | 17095 ft | 369 kts | 219° |
| 2026-05-06 07:52 | 25.73795 | 103.61520 | 16706 ft | 369 kts | 219° |
| 2026-05-06 07:53 | 25.71661 | 103.59866 | 16314 ft | 368 kts | 219° |
| 2026-05-06 07:53 | 25.69559 | 103.58236 | 15931 ft | 368 kts | 219° |
| 2026-05-06 07:53 | 25.67451 | 103.56602 | 15689 ft | 361 kts | 219° |
| 2026-05-06 07:53 | 25.65394 | 103.55013 | 15627 ft | 348 kts | 219° |
| 2026-05-06 07:54 | 25.63406 | 103.53477 | 15573 ft | 337 kts | 219° |
| 2026-05-06 07:54 | 25.61494 | 103.52000 | 15512 ft | 325 kts | 219° |
| 2026-05-06 07:54 | 25.59670 | 103.50589 | 15447 ft | 315 kts | 219° |
| 2026-05-06 07:54 | 25.57889 | 103.49213 | 15406 ft | 304 kts | 219° |
| 2026-05-06 07:55 | 25.56183 | 103.47893 | 15380 ft | 293 kts | 219° |
| 2026-05-06 07:55 | 25.54534 | 103.46619 | 15320 ft | 283 kts | 220° |
| 2026-05-06 07:55 | 25.52942 | 103.45388 | 15303 ft | 272 kts | 220° |
| 2026-05-06 07:55 | 25.51377 | 103.44170 | 15284 ft | 271 kts | 223° |
| 2026-05-06 07:56 | 25.50054 | 103.42730 | 15230 ft | 264 kts | 237° |
| 2026-05-06 07:56 | 25.49284 | 103.41439 | 15073 ft | 259 kts | 243° |
| 2026-05-06 07:56 | 25.48376 | 103.39727 | 14814 ft | 257 kts | 244° |
| 2026-05-06 07:56 | 25.47480 | 103.38008 | 14486 ft | 258 kts | 243° |
| 2026-05-06 07:57 | 25.46579 | 103.36292 | 14196 ft | 257 kts | 243° |
| 2026-05-06 07:57 | 25.45678 | 103.34586 | 13928 ft | 255 kts | 243° |
| 2026-05-06 07:57 | 25.44777 | 103.32886 | 13670 ft | 253 kts | 243° |
| 2026-05-06 07:57 | 25.43889 | 103.31216 | 13412 ft | 252 kts | 243° |
| 2026-05-06 07:58 | 25.42989 | 103.29527 | 13152 ft | 250 kts | 243° |
| 2026-05-06 07:58 | 25.42097 | 103.27849 | 12890 ft | 248 kts | 243° |
| 2026-05-06 07:58 | 25.41221 | 103.26206 | 12642 ft | 246 kts | 242° |
| 2026-05-06 07:58 | 25.40359 | 103.24588 | 12395 ft | 244 kts | 242° |
| 2026-05-06 07:59 | 25.39493 | 103.22964 | 12151 ft | 242 kts | 242° |
| 2026-05-06 07:59 | 25.38639 | 103.21365 | 11912 ft | 240 kts | 242° |
| 2026-05-06 07:59 | 25.37787 | 103.19770 | 11669 ft | 238 kts | 242° |
| 2026-05-06 07:59 | 25.36940 | 103.18183 | 11431 ft | 237 kts | 242° |
| 2026-05-06 08:00 | 25.36098 | 103.16608 | 11185 ft | 235 kts | 241° |
| 2026-05-06 08:00 | 25.35268 | 103.15057 | 11031 ft | 229 kts | 242° |
| 2026-05-06 08:00 | 25.34478 | 103.13584 | 11026 ft | 216 kts | 242° |
| 2026-05-06 08:00 | 25.33646 | 103.12236 | 11003 ft | 204 kts | 231° |
| 2026-05-06 08:01 | 25.32632 | 103.11232 | 10989 ft | 183 kts | 223° |
| 2026-05-06 08:01 | 25.31659 | 103.10379 | 10982 ft | 177 kts | 223° |
| 2026-05-06 08:01 | 25.30685 | 103.09514 | 10962 ft | 176 kts | 224° |
| 2026-05-06 08:01 | 25.29721 | 103.08662 | 10777 ft | 176 kts | 223° |
| 2026-05-06 08:02 | 25.28757 | 103.07816 | 10559 ft | 175 kts | 223° |
| 2026-05-06 08:02 | 25.27801 | 103.06982 | 10350 ft | 174 kts | 223° |
| 2026-05-06 08:02 | 25.26836 | 103.06142 | 10246 ft | 174 kts | 222° |
| 2026-05-06 08:02 | 25.25880 | 103.05312 | 10155 ft | 175 kts | 222° |
| 2026-05-06 08:03 | 25.24930 | 103.04488 | 9944 ft | 174 kts | 222° |
| 2026-05-06 08:03 | 25.23967 | 103.03653 | 9687 ft | 173 kts | 222° |
| 2026-05-06 08:03 | 25.23010 | 103.02822 | 9411 ft | 173 kts | 222° |
| 2026-05-06 08:03 | 25.22071 | 103.02007 | 9133 ft | 172 kts | 222° |
| 2026-05-06 08:04 | 25.21120 | 103.01181 | 8845 ft | 171 kts | 222° |
| 2026-05-06 08:04 | 25.20192 | 103.00375 | 8592 ft | 166 kts | 222° |
| 2026-05-06 08:04 | 25.19290 | 102.99591 | 8325 ft | 160 kts | 221° |
| 2026-05-06 08:04 | 25.18441 | 102.98854 | 8132 ft | 150 kts | 222° |
| 2026-05-06 08:05 | 25.17617 | 102.98135 | 7955 ft | 149 kts | 221° |
| 2026-05-06 08:05 | 25.16793 | 102.97417 | 7798 ft | 150 kts | 221° |
| 2026-05-06 08:05 | 25.15975 | 102.96707 | 7642 ft | 150 kts | 221° |
| 2026-05-06 08:05 | 25.15146 | 102.95987 | 7458 ft | 149 kts | 221° |
| 2026-05-06 08:06 | 25.14330 | 102.95276 | 7274 ft | 149 kts | 221° |
| 2026-05-06 08:06 | 25.13506 | 102.94571 | 7102 ft | 148 kts | 220° |
| 2026-05-06 08:06 | 25.12682 | 102.93849 | 6951 ft | 148 kts | 220° |
| 2026-05-06 08:06 | 25.11898 | 102.93166 | 6924 ft | 131 kts | 220° |
| 2026-05-06 08:07 | 25.11331 | 102.92659 | 6924 ft | 74 kts | 219° |
| 2026-05-06 08:07 | 25.11023 | 102.92420 | 6925 ft | 36 kts | 201° |
| 2026-05-06 08:07 | 25.10890 | 102.92383 | 6924 ft | 10 kts | 192° |
| 2026-05-06 08:07 | 25.10821 | 102.92366 | 6925 ft | 10 kts | 193° |
| 2026-05-06 08:08 | 25.10752 | 102.92350 | 6924 ft | 10 kts | 190° |
| 2026-05-06 08:08 | 25.10685 | 102.92332 | 6924 ft | 9 kts | 202° |
| 2026-05-06 08:08 | 25.10627 | 102.92291 | 6924 ft | 9 kts | 220° |
| 2026-05-06 08:08 | 25.10573 | 102.92258 | 6924 ft | 8 kts | 181° |
| 2026-05-06 08:09 | 25.10528 | 102.92290 | 6925 ft | 8 kts | 130° |
| 2026-05-06 08:09 | 25.10491 | 102.92339 | 6925 ft | 8 kts | 129° |
| 2026-05-06 08:09 | 25.10448 | 102.92381 | 6925 ft | 8 kts | 162° |
| 2026-05-06 08:09 | 25.10400 | 102.92371 | 6925 ft | 2 kts | 212° |
| 2026-05-06 08:10 | 25.10381 | 102.92356 | 6925 ft | 3 kts | 216° |
| 2026-05-06 08:10 | 25.10369 | 102.92347 | 6925 ft | 0 kts | 216° |